Time;durP1;ratioP1;P1;durP2;ratioP2;P2;SDS_P1;SDS_P2;PMS_P1;PMS_P2;Temp;Humidity;BMP_temperature;BMP_pressure;BME280_temperature;BME280_humidity;BME280_pressure;Samples;Min_cycle;Max_cycle;Signal;HPM_P1;HPM_P2
2022/04/05 00:00:57;;;;;;;6.07;5.00;;;6.10;99.90;;;;;;5117423;28;20961;-71
2022/04/05 00:03:24;;;;;;;6.93;4.07;;;6.00;99.90;;;;;;5117782;28;20452;-71
2022/04/05 00:05:51;;;;;;;9.20;3.80;;;6.00;99.90;;;;;;5117819;28;20467;-71
2022/04/05 00:08:17;;;;;;;6.70;4.50;;;6.00;99.90;;;;;;5117288;28;20456;-71
2022/04/05 00:10:44;;;;;;;5.37;4.20;;;5.90;99.90;;;;;;5117946;28;20448;-71
2022/04/05 00:13:12;;;;;;;5.73;3.87;;;5.90;99.90;;;;;;5117710;28;20466;-71
2022/04/05 00:15:39;;;;;;;4.07;2.80;;;5.90;99.90;;;;;;5117770;28;20457;-71
2022/04/05 00:18:05;;;;;;;5.13;2.93;;;5.90;99.90;;;;;;5118079;28;20741;-71
2022/04/05 00:20:32;;;;;;;6.73;3.30;;;5.90;99.90;;;;;;5117728;28;20472;-71
2022/04/05 00:22:59;;;;;;;4.63;3.23;;;5.90;99.90;;;;;;5117897;28;20463;-71
2022/04/05 00:25:26;;;;;;;8.73;2.80;;;5.80;99.90;;;;;;5117427;28;20495;-71
2022/04/05 00:27:53;;;;;;;6.50;2.83;;;5.90;99.90;;;;;;5117518;28;20464;-71
2022/04/05 00:30:21;;;;;;;6.80;2.47;;;5.90;99.90;;;;;;5117346;28;20456;-71
2022/04/05 00:32:48;;;;;;;3.60;1.87;;;5.90;99.90;;;;;;5117111;28;20480;-71
2022/04/05 00:35:14;;;;;;;4.37;1.90;;;5.90;99.90;;;;;;5117125;28;20863;-71
2022/04/05 00:37:41;;;;;;;3.30;1.90;;;5.90;99.90;;;;;;5116630;28;20525;-71
2022/04/05 00:40:09;;;;;;;6.47;2.13;;;6.00;99.90;;;;;;5117163;28;20506;-71
2022/04/05 00:42:37;;;;;;;6.53;2.10;;;6.00;99.90;;;;;;5116696;28;20543;-72
2022/04/05 00:45:05;;;;;;;3.50;1.80;;;5.90;99.90;;;;;;5117002;28;20448;-71
2022/04/05 00:47:33;;;;;;;5.57;1.93;;;6.00;99.90;;;;;;5117154;28;20483;-71
2022/04/05 00:50:00;;;;;;;5.20;2.10;;;6.00;99.90;;;;;;5116830;28;20472;-71
2022/04/05 00:52:28;;;;;;;5.87;2.30;;;6.00;99.90;;;;;;5116628;28;20467;-71
2022/04/05 00:54:59;;;;;;;3.07;2.17;;;6.00;99.90;;;;;;5116187;28;21004;-71
2022/04/05 00:57:28;;;;;;;4.83;1.50;;;6.00;99.90;;;;;;5116688;28;20787;-71
2022/04/05 00:59:57;;;;;;;3.63;1.50;;;6.00;99.90;;;;;;5116376;28;20462;-71
2022/04/05 01:02:27;;;;;;;6.03;1.70;;;6.00;99.90;;;;;;5116413;28;20460;-71
2022/04/05 01:04:58;;;;;;;4.13;1.60;;;6.00;99.90;;;;;;5116322;28;20524;-71
2022/04/05 01:07:27;;;;;;;2.90;1.70;;;6.10;99.90;;;;;;5116455;28;20445;-71
2022/04/05 01:09:55;;;;;;;4.13;1.80;;;6.10;99.90;;;;;;5116537;28;20453;-70
2022/04/05 01:12:23;;;;;;;6.63;2.30;;;6.10;99.90;;;;;;5116295;28;20934;-71
2022/04/05 01:14:50;;;;;;;5.57;2.07;;;6.10;99.90;;;;;;5116051;28;20456;-71
2022/04/05 01:17:17;;;;;;;8.67;2.37;;;6.00;99.90;;;;;;5116208;28;20460;-71
2022/04/05 01:19:47;;;;;;;5.20;2.70;;;6.00;99.90;;;;;;5116154;28;20456;-71
2022/04/05 01:22:16;;;;;;;2.63;1.77;;;6.00;99.90;;;;;;5115940;28;20937;-70
2022/04/05 01:24:44;;;;;;;6.10;1.97;;;5.90;99.90;;;;;;5116227;28;20467;-70
2022/04/05 01:27:16;;;;;;;4.43;2.13;;;6.00;99.90;;;;;;5116091;28;20463;-71
2022/04/05 01:29:44;;;;;;;5.07;2.10;;;6.00;99.90;;;;;;5115626;28;20452;-72
2022/04/05 01:32:10;;;;;;;2.80;1.80;;;6.00;99.90;;;;;;5115394;28;20873;-71
2022/04/05 01:34:39;;;;;;;4.20;1.87;;;6.00;99.90;;;;;;5115840;28;20456;-71
2022/04/05 01:37:08;;;;;;;4.80;2.30;;;6.00;99.90;;;;;;5115905;28;20467;-70
2022/04/05 01:39:36;;;;;;;4.70;1.77;;;6.10;99.90;;;;;;5116081;28;20754;-70
2022/04/05 01:42:06;;;;;;;9.20;1.80;;;6.10;99.90;;;;;;5115726;28;20487;-70
2022/04/05 01:44:34;;;;;;;3.53;1.47;;;6.10;99.90;;;;;;5115906;28;20470;-70
2022/04/05 01:47:04;;;;;;;4.03;2.17;;;6.10;99.90;;;;;;5115606;28;20468;-70
2022/04/05 01:49:31;;;;;;;6.10;1.70;;;6.10;99.90;;;;;;5115521;28;20452;-72
2022/04/05 01:51:57;;;;;;;6.30;1.87;;;6.10;99.90;;;;;;5115472;28;20509;-70
2022/04/05 01:54:24;;;;;;;3.33;2.00;;;6.10;99.90;;;;;;5115287;28;20984;-70
2022/04/05 01:56:52;;;;;;;8.77;2.07;;;6.10;99.90;;;;;;5115710;28;20456;-69
2022/04/05 01:59:22;;;;;;;6.10;2.40;;;6.10;99.90;;;;;;5115219;28;20915;-70
2022/04/05 02:01:48;;;;;;;6.33;2.10;;;6.10;99.90;;;;;;5114961;28;20502;-71
2022/04/05 02:04:16;;;;;;;6.57;1.97;;;6.10;99.90;;;;;;5115524;28;20464;-71
2022/04/05 02:06:44;;;;;;;7.53;2.13;;;6.10;99.90;;;;;;5115110;28;20456;-71
2022/04/05 02:09:13;;;;;;;11.63;2.40;;;6.10;99.90;;;;;;5115113;28;20548;-71
2022/04/05 02:11:41;;;;;;;6.03;2.00;;;6.10;99.90;;;;;;5115349;28;20459;-70
2022/04/05 02:14:08;;;;;;;7.97;2.60;;;6.10;99.90;;;;;;5115340;28;20600;-70
2022/04/05 02:16:36;;;;;;;7.20;1.80;;;6.10;99.90;;;;;;5115155;28;20531;-71
2022/04/05 02:19:03;;;;;;;5.53;1.70;;;6.10;99.90;;;;;;5115244;28;20452;-72
2022/04/05 02:21:30;;;;;;;4.67;2.10;;;6.10;99.90;;;;;;5115154;28;20480;-70
2022/04/05 02:23:56;;;;;;;8.03;2.10;;;6.10;99.90;;;;;;5115411;28;20464;-72
2022/04/05 02:26:23;;;;;;;7.23;2.10;;;6.10;99.90;;;;;;5115325;28;20906;-71
2022/04/05 02:28:50;;;;;;;4.57;1.80;;;6.10;99.90;;;;;;5115379;28;20849;-69
2022/04/05 02:31:17;;;;;;;2.70;1.60;;;6.10;99.90;;;;;;5115051;28;20506;-70
2022/04/05 02:33:46;;;;;;;5.67;1.70;;;6.10;99.90;;;;;;5115186;28;20448;-71
2022/04/05 02:36:12;;;;;;;6.60;2.03;;;6.10;99.90;;;;;;5114861;28;20452;-69
2022/04/05 02:38:39;;;;;;;7.77;2.07;;;6.10;99.90;;;;;;5114973;28;20486;-70
2022/04/05 02:41:06;;;;;;;8.30;2.10;;;6.10;99.90;;;;;;5114904;28;20483;-71
2022/04/05 02:43:34;;;;;;;8.73;1.77;;;6.10;99.90;;;;;;5115371;28;20806;-71
2022/04/05 02:46:01;;;;;;;4.40;1.90;;;6.10;99.90;;;;;;5119030;28;20457;-71
2022/04/05 02:48:27;;;;;;;6.93;2.00;;;6.10;99.90;;;;;;5118776;28;20929;-69
2022/04/05 02:50:55;;;;;;;7.27;1.97;;;6.10;99.90;;;;;;5119082;28;20453;-69
2022/04/05 02:53:22;;;;;;;7.87;2.30;;;6.10;99.90;;;;;;5118734;28;20449;-70
2022/04/05 02:55:49;;;;;;;3.50;1.90;;;6.10;99.90;;;;;;5119155;28;20957;-70
2022/04/05 02:58:16;;;;;;;10.70;2.10;;;6.00;99.90;;;;;;5119681;28;20898;-70
2022/04/05 03:00:42;;;;;;;9.03;2.13;;;6.00;99.90;;;;;;5119655;28;20456;-71
2022/04/05 03:03:09;;;;;;;6.10;2.47;;;6.00;99.90;;;;;;5118597;28;20456;-70
2022/04/05 03:05:36;;;;;;;6.23;2.03;;;6.00;99.90;;;;;;5119573;28;20456;-72
2022/04/05 03:08:05;;;;;;;2.80;1.77;;;6.00;99.90;;;;;;5119597;28;20451;-70
2022/04/05 03:10:32;;;;;;;5.57;1.90;;;6.00;99.90;;;;;;5118924;28;20456;-70
2022/04/05 03:13:00;;;;;;;11.90;1.77;;;6.00;99.90;;;;;;5119059;28;20453;-70
2022/04/05 03:15:27;;;;;;;6.00;2.90;;;6.00;99.90;;;;;;5119757;28;21008;-70
2022/04/05 03:17:55;;;;;;;3.10;1.73;;;6.00;99.90;;;;;;5118542;28;20460;-70
2022/04/05 03:20:22;;;;;;;8.07;1.90;;;6.00;99.90;;;;;;5118462;28;20906;-70
2022/04/05 03:22:49;;;;;;;8.70;3.33;;;6.00;99.90;;;;;;5117787;28;20981;-70
2022/04/05 03:25:17;;;;;;;2.93;1.50;;;6.00;99.90;;;;;;5118502;28;20456;-69
2022/04/05 03:27:45;;;;;;;8.50;2.13;;;6.00;99.90;;;;;;5118229;28;20494;-71
2022/04/05 03:30:15;;;;;;;7.43;2.17;;;6.00;99.90;;;;;;5118422;28;20452;-69
2022/04/05 03:32:42;;;;;;;7.93;2.30;;;6.00;99.90;;;;;;5118652;28;20483;-70
2022/04/05 03:35:09;;;;;;;4.43;2.30;;;6.00;99.90;;;;;;5118673;28;20464;-71
2022/04/05 03:37:36;;;;;;;11.97;2.30;;;6.00;99.90;;;;;;5118604;28;20460;-70
2022/04/05 03:40:04;;;;;;;8.90;2.27;;;6.00;99.90;;;;;;5118419;28;20448;-70
2022/04/05 03:42:32;;;;;;;7.97;1.90;;;6.00;99.90;;;;;;5118186;28;20476;-70
2022/04/05 03:44:59;;;;;;;7.27;2.00;;;6.00;99.90;;;;;;5118052;28;20463;-71
2022/04/05 03:47:27;;;;;;;10.13;2.30;;;6.00;99.90;;;;;;5118331;28;20460;-70
2022/04/05 03:49:54;;;;;;;7.00;2.60;;;6.00;99.90;;;;;;5118094;28;20503;-71
2022/04/05 03:52:21;;;;;;;8.43;2.60;;;6.00;99.90;;;;;;5118325;28;20903;-71
2022/04/05 03:54:48;;;;;;;6.63;2.30;;;6.00;99.90;;;;;;5117372;28;20480;-71
2022/04/05 03:57:15;;;;;;;5.43;2.00;;;6.00;99.90;;;;;;5117476;28;20457;-71
2022/04/05 03:59:43;;;;;;;5.60;2.27;;;6.00;99.90;;;;;;5117976;28;20789;-70
2022/04/05 04:02:10;;;;;;;6.70;2.20;;;6.00;99.90;;;;;;5117399;28;20484;-71
2022/04/05 04:04:38;;;;;;;7.47;2.60;;;6.00;99.90;;;;;;5117616;28;20456;-71
2022/04/05 04:07:05;;;;;;;4.00;2.70;;;6.10;99.90;;;;;;5117453;28;20452;-70
2022/04/05 04:09:31;;;;;;;10.43;2.40;;;6.10;99.90;;;;;;5117839;28;20456;-70
2022/04/05 04:11:58;;;;;;;9.90;2.80;;;6.00;99.90;;;;;;5117676;28;20456;-71
2022/04/05 04:14:25;;;;;;;7.33;2.70;;;6.00;99.90;;;;;;5117452;28;20939;-71
2022/04/05 04:16:53;;;;;;;10.67;2.40;;;6.00;99.90;;;;;;5117045;28;20517;-70
2022/04/05 04:19:20;;;;;;;8.20;2.07;;;6.00;99.90;;;;;;5117396;28;20475;-70
2022/04/05 04:21:46;;;;;;;7.10;2.47;;;6.00;99.90;;;;;;5118022;28;20486;-71
2022/04/05 04:24:13;;;;;;;7.83;2.73;;;6.00;99.90;;;;;;5117713;28;20463;-70
2022/04/05 04:26:40;;;;;;;4.57;2.20;;;6.10;99.90;;;;;;5117609;28;20941;-71
2022/04/05 04:29:07;;;;;;;4.70;2.53;;;6.10;99.90;;;;;;5117174;28;20464;-69
2022/04/05 04:31:34;;;;;;;7.47;2.90;;;6.00;99.90;;;;;;5116908;28;20449;-71
2022/04/05 04:34:02;;;;;;;7.17;3.00;;;6.00;99.90;;;;;;5116986;28;20462;-70
2022/04/05 04:36:29;;;;;;;7.87;2.17;;;6.00;99.90;;;;;;5116414;28;20463;-71
2022/04/05 04:38:56;;;;;;;5.40;2.17;;;6.00;99.90;;;;;;5117128;28;20452;-70
2022/04/05 04:41:23;;;;;;;6.20;2.80;;;5.90;99.90;;;;;;5116619;28;20472;-72
2022/04/05 04:43:51;;;;;;;6.73;2.70;;;5.90;99.90;;;;;;5117090;28;20525;-70
2022/04/05 04:46:19;;;;;;;6.70;1.90;;;5.90;99.90;;;;;;5116750;28;20467;-71
2022/04/05 04:48:47;;;;;;;8.33;2.20;;;5.90;99.90;;;;;;5116774;28;20460;-71
2022/04/05 04:51:15;;;;;;;5.07;1.60;;;5.90;99.90;;;;;;5116820;28;20456;-72
2022/04/05 04:53:42;;;;;;;3.67;2.17;;;5.90;99.90;;;;;;5116582;28;20460;-70
2022/04/05 04:56:09;;;;;;;8.03;2.50;;;6.00;99.90;;;;;;5116293;28;20490;-71
2022/04/05 04:58:36;;;;;;;9.77;2.13;;;6.00;99.90;;;;;;5116552;28;20466;-71
2022/04/05 05:01:02;;;;;;;12.97;2.53;;;6.00;99.90;;;;;;5116383;28;20767;-70
2022/04/05 05:03:29;;;;;;;9.90;2.30;;;5.90;99.90;;;;;;5116454;28;20460;-70
2022/04/05 05:05:56;;;;;;;12.03;2.97;;;6.00;99.90;;;;;;5116023;28;20794;-69
2022/04/05 05:08:24;;;;;;;9.13;2.50;;;5.90;99.90;;;;;;5115949;28;20914;-70
2022/04/05 05:10:51;;;;;;;6.60;2.60;;;5.90;99.90;;;;;;5116323;28;20497;-71
2022/04/05 05:13:18;;;;;;;7.33;3.10;;;5.90;99.90;;;;;;5116551;28;20456;-72
2022/04/05 05:15:45;;;;;;;5.90;2.43;;;5.90;99.90;;;;;;5116102;28;20944;-70
2022/04/05 05:18:11;;;;;;;7.10;2.93;;;6.00;99.90;;;;;;5116109;28;20464;-71
2022/04/05 05:20:38;;;;;;;12.33;3.10;;;6.00;99.90;;;;;;5116281;28;20796;-71
2022/04/05 05:23:05;;;;;;;8.30;2.60;;;6.00;99.90;;;;;;5115912;28;20836;-71
2022/04/05 05:25:34;;;;;;;7.30;2.23;;;6.00;99.90;;;;;;5116196;28;20472;-71
2022/04/05 05:28:00;;;;;;;10.10;2.80;;;6.00;99.90;;;;;;5116027;28;20903;-70
2022/04/05 05:30:27;;;;;;;9.07;2.67;;;6.00;99.90;;;;;;5115943;28;20515;-72
2022/04/05 05:32:54;;;;;;;4.80;2.80;;;6.00;99.90;;;;;;5115716;28;20452;-71
2022/04/05 05:35:23;;;;;;;8.57;2.50;;;6.00;99.90;;;;;;5115877;28;20514;-70
2022/04/05 05:37:50;;;;;;;6.27;2.60;;;6.00;99.90;;;;;;5116315;28;20456;-71
2022/04/05 05:40:18;;;;;;;7.23;1.97;;;6.10;99.90;;;;;;5115372;28;20460;-71
2022/04/05 05:42:55;;;;;;;7.07;2.33;;;6.00;99.90;;;;;;5115820;28;20484;-71
2022/04/05 05:45:22;;;;;;;4.53;1.90;;;6.00;99.90;;;;;;5115595;28;20537;-70
2022/04/05 05:47:49;;;;;;;10.60;2.83;;;6.00;99.90;;;;;;5115924;28;20746;-71
2022/04/05 05:50:17;;;;;;;8.83;2.93;;;6.00;99.90;;;;;;5115190;28;20922;-70
2022/04/05 05:52:45;;;;;;;7.27;2.50;;;6.00;99.90;;;;;;5115547;28;20475;-70
2022/04/05 05:55:13;;;;;;;6.47;3.00;;;6.00;99.90;;;;;;5115051;28;20491;-70
2022/04/05 05:57:40;;;;;;;9.53;3.07;;;6.00;99.90;;;;;;5115270;28;20457;-70
2022/04/05 06:00:10;;;;;;;7.00;2.27;;;6.00;99.90;;;;;;5115423;28;20460;-70
2022/04/05 06:02:38;;;;;;;9.17;2.50;;;6.00;99.90;;;;;;5114772;28;20961;-70
2022/04/05 06:05:06;;;;;;;12.67;3.10;;;6.00;99.90;;;;;;5115222;28;20484;-70
2022/04/05 06:07:34;;;;;;;13.57;2.37;;;6.00;99.90;;;;;;5115355;28;20456;-70
2022/04/05 06:10:02;;;;;;;8.30;2.40;;;6.10;99.90;;;;;;5115657;28;20917;-70
2022/04/05 06:12:28;;;;;;;9.70;2.43;;;6.10;99.90;;;;;;5115259;28;20484;-71
2022/04/05 06:14:58;;;;;;;7.20;2.20;;;6.10;99.90;;;;;;5115844;28;20467;-71
2022/04/05 06:17:26;;;;;;;6.70;2.43;;;6.10;99.90;;;;;;5115123;28;20448;-71
2022/04/05 06:19:53;;;;;;;5.47;2.23;;;6.10;99.90;;;;;;5115036;28;20897;-71
2022/04/05 06:22:20;;;;;;;8.00;2.90;;;6.20;99.90;;;;;;5115377;28;20805;-71
2022/04/05 06:24:47;;;;;;;9.93;2.20;;;6.20;99.90;;;;;;5114925;28;20460;-71
2022/04/05 06:27:13;;;;;;;3.20;1.43;;;6.20;99.90;;;;;;5115283;28;20448;-71
2022/04/05 06:29:40;;;;;;;5.90;2.33;;;6.30;99.90;;;;;;5114717;28;20475;-73
2022/04/05 06:32:08;;;;;;;11.90;1.97;;;6.30;99.90;;;;;;5115013;28;20464;-71
2022/04/05 06:34:36;;;;;;;6.20;1.87;;;6.30;99.90;;;;;;5115322;28;20457;-72
2022/04/05 06:37:02;;;;;;;5.57;2.40;;;6.30;99.90;;;;;;5114956;28;20800;-71
2022/04/05 06:39:29;;;;;;;5.27;2.13;;;6.30;99.90;;;;;;5116027;28;20463;-71
2022/04/05 06:41:56;;;;;;;3.87;2.03;;;6.30;99.90;;;;;;5115716;28;20847;-71
2022/04/05 06:44:23;;;;;;;5.80;1.90;;;6.40;99.90;;;;;;5114731;28;20460;-70
2022/04/05 06:46:49;;;;;;;7.37;2.30;;;6.40;99.90;;;;;;5114987;28;20452;-70
2022/04/05 06:49:16;;;;;;;4.97;2.03;;;6.40;99.90;;;;;;5114754;28;20467;-70
2022/04/05 06:51:44;;;;;;;9.47;2.13;;;6.40;99.90;;;;;;5114562;28;20461;-71
2022/04/05 06:54:11;;;;;;;7.40;2.70;;;6.30;99.90;;;;;;5114676;28;20499;-71
2022/04/05 06:56:37;;;;;;;11.80;2.50;;;6.40;99.90;;;;;;5114698;28;20433;-70
2022/04/05 06:59:04;;;;;;;5.80;2.33;;;6.40;99.90;;;;;;5114677;28;20453;-71
2022/04/05 07:01:32;;;;;;;11.13;2.00;;;6.40;99.90;;;;;;5114700;28;20464;-70
2022/04/05 07:03:59;;;;;;;8.83;2.37;;;6.40;99.90;;;;;;5117324;28;20480;-71
2022/04/05 07:06:26;;;;;;;8.30;2.70;;;6.40;99.90;;;;;;5116454;28;20792;-72
2022/04/05 07:08:54;;;;;;;6.57;2.30;;;6.50;99.90;;;;;;5115544;28;20538;-70
2022/04/05 07:11:20;;;;;;;6.03;1.90;;;6.50;99.90;;;;;;5114524;28;20471;-71
2022/04/05 07:13:47;;;;;;;8.30;2.47;;;6.50;99.90;;;;;;5115111;28;20456;-71
2022/04/05 07:16:14;;;;;;;3.57;1.97;;;6.60;99.90;;;;;;5114781;28;20783;-71
2022/04/05 07:18:40;;;;;;;6.40;1.80;;;6.70;99.90;;;;;;5114354;28;20460;-71
2022/04/05 07:21:08;;;;;;;6.03;2.27;;;6.70;99.90;;;;;;5114575;28;20463;-70
2022/04/05 07:23:36;;;;;;;4.40;1.70;;;6.80;99.90;;;;;;5114825;28;20484;-71
2022/04/05 07:26:04;;;;;;;5.33;1.90;;;6.80;99.90;;;;;;5114087;28;20460;-71
2022/04/05 07:28:30;;;;;;;10.00;2.43;;;6.80;99.90;;;;;;5114338;28;20559;-71
2022/04/05 07:30:57;;;;;;;3.70;1.70;;;6.80;99.90;;;;;;5117016;28;20471;-71
2022/04/05 07:33:24;;;;;;;4.07;2.00;;;6.70;99.90;;;;;;5118180;28;20819;-72
2022/04/05 07:35:51;;;;;;;8.60;1.80;;;6.60;99.90;;;;;;5118134;28;20521;-71
2022/04/05 07:38:18;;;;;;;5.90;2.20;;;6.70;99.90;;;;;;5118106;28;20492;-71
2022/04/05 07:40:52;;;;;;;4.77;2.07;;;6.90;99.90;;;;;;5118138;28;20832;-72
2022/04/05 07:43:22;;;;;;;2.93;1.47;;;6.90;99.90;;;;;;5118132;28;20862;-72
2022/04/05 07:45:49;;;;;;;6.00;1.63;;;6.90;99.90;;;;;;5118053;28;20770;-71
2022/04/05 07:48:16;;;;;;;4.90;1.70;;;7.00;99.90;;;;;;5118602;28;20452;-71
2022/04/05 07:50:43;;;;;;;3.60;1.97;;;7.10;99.90;;;;;;5118236;28;20495;-70
2022/04/05 07:53:10;;;;;;;3.30;1.50;;;7.10;99.90;;;;;;5117919;28;20521;-71
2022/04/05 07:55:36;;;;;;;3.23;1.60;;;7.10;99.90;;;;;;5118193;28;20498;-71
2022/04/05 07:58:03;;;;;;;5.90;1.53;;;7.10;99.90;;;;;;5118241;28;20456;-72
2022/04/05 08:00:31;;;;;;;5.83;1.93;;;7.00;99.90;;;;;;5118335;28;20835;-70
2022/04/05 08:02:58;;;;;;;4.03;1.40;;;7.00;99.90;;;;;;5118602;28;20480;-71
2022/04/05 08:05:25;;;;;;;2.70;1.27;;;7.10;99.90;;;;;;5118517;28;20453;-72
2022/04/05 08:07:52;;;;;;;4.93;1.50;;;7.10;99.90;;;;;;5118603;28;20529;-72
2022/04/05 08:10:19;;;;;;;8.53;1.67;;;7.20;99.90;;;;;;5118325;28;20471;-71
2022/04/05 08:12:48;;;;;;;8.07;1.93;;;7.10;99.90;;;;;;5118399;28;20480;-71
2022/04/05 08:15:17;;;;;;;4.00;1.43;;;7.10;99.90;;;;;;5118469;28;20464;-70
2022/04/05 08:17:45;;;;;;;6.70;1.40;;;7.10;99.90;;;;;;5118668;28;20463;-73
2022/04/05 08:20:12;;;;;;;5.67;1.40;;;7.10;99.90;;;;;;5117571;28;20456;-72
2022/04/05 08:22:39;;;;;;;5.67;1.43;;;7.10;99.90;;;;;;5117274;28;20929;-73
2022/04/05 08:25:07;;;;;;;6.30;1.90;;;7.20;99.90;;;;;;5117261;28;20910;-73
2022/04/05 08:27:34;;;;;;;6.50;2.13;;;7.30;99.90;;;;;;5117651;28;20465;-70
2022/04/05 08:30:01;;;;;;;2.90;1.40;;;7.40;99.90;;;;;;5117654;28;20815;-71
2022/04/05 08:32:29;;;;;;;3.43;1.30;;;7.40;99.90;;;;;;5117101;28;20448;-70
2022/04/05 08:34:57;;;;;;;3.53;1.47;;;7.30;99.90;;;;;;5117167;28;20452;-71
2022/04/05 08:37:24;;;;;;;3.73;1.30;;;7.40;99.90;;;;;;5117294;28;20457;-71
2022/04/05 08:39:51;;;;;;;4.83;1.30;;;7.50;99.90;;;;;;5117014;28;20528;-70
2022/04/05 08:42:17;;;;;;;8.13;2.03;;;7.60;99.90;;;;;;5116553;28;20471;-70
2022/04/05 08:44:44;;;;;;;4.30;1.63;;;7.60;99.90;;;;;;5116934;28;20574;-71
2022/04/05 08:47:12;;;;;;;4.30;1.60;;;7.50;99.90;;;;;;5116570;28;20464;-73
2022/04/05 08:49:40;;;;;;;4.73;3.40;;;7.50;99.90;;;;;;5116634;28;20452;-73
2022/04/05 08:52:09;;;;;;;7.03;1.80;;;7.50;99.90;;;;;;5115889;28;20553;-71
2022/04/05 08:54:36;;;;;;;3.30;1.40;;;7.60;99.90;;;;;;5116725;28;20476;-71
2022/04/05 08:57:03;;;;;;;6.33;1.90;;;7.50;99.90;;;;;;5117003;28;20461;-71
2022/04/05 08:59:31;;;;;;;5.90;1.77;;;7.50;99.90;;;;;;5116543;28;20463;-70
2022/04/05 09:01:58;;;;;;;6.60;1.40;;;7.70;99.90;;;;;;5116088;28;20543;-71
2022/04/05 09:04:25;;;;;;;4.67;1.37;;;7.70;99.90;;;;;;5116343;28;20483;-71
2022/04/05 09:06:52;;;;;;;4.20;1.33;;;7.70;99.90;;;;;;5116504;28;20483;-71
2022/04/05 09:09:28;;;;;;;6.63;2.07;;;7.70;99.90;;;;;;5116773;28;20472;-71
2022/04/05 09:11:56;;;;;;;3.07;1.27;;;7.70;99.90;;;;;;5116165;28;20444;-71
2022/04/05 09:14:24;;;;;;;5.77;1.73;;;7.80;99.90;;;;;;5116590;28;20449;-71
2022/04/05 09:17:05;;;;;;;4.83;1.83;;;7.90;99.90;;;;;;5115951;28;20453;-71
2022/04/05 09:19:37;;;;;;;6.87;1.47;;;8.00;99.90;;;;;;5116124;28;20828;-71
2022/04/05 09:22:04;;;;;;;3.43;1.20;;;8.00;99.90;;;;;;5116444;28;20445;-72
2022/04/05 09:24:35;;;;;;;2.87;1.10;;;7.80;99.90;;;;;;5116654;28;20490;-72
2022/04/05 09:27:03;;;;;;;5.83;1.33;;;7.80;99.90;;;;;;5116359;28;20444;-71
2022/04/05 09:29:39;;;;;;;3.60;1.47;;;7.90;99.90;;;;;;5116252;28;20457;-70
2022/04/05 09:32:06;;;;;;;10.00;1.80;;;7.90;99.90;;;;;;5115943;28;20487;-70
2022/04/05 09:34:33;;;;;;;4.77;1.60;;;8.10;99.90;;;;;;5116828;28;20453;-70
2022/04/05 09:37:08;;;;;;;4.10;1.57;;;8.10;99.90;;;;;;5116268;28;20496;-72
2022/04/05 09:39:36;;;;;;;11.30;1.80;;;8.20;99.90;;;;;;5116688;28;20440;-71
2022/04/05 09:42:07;;;;;;;6.40;1.50;;;8.30;99.90;;;;;;5116549;28;20457;-70
2022/04/05 09:44:40;;;;;;;4.97;1.40;;;8.30;99.90;;;;;;5117507;28;20766;-72
2022/04/05 09:47:09;;;;;;;4.20;1.63;;;8.30;99.90;;;;;;5116038;28;20460;-71
2022/04/05 09:49:38;;;;;;;6.03;2.47;;;8.20;99.90;;;;;;5115550;28;20543;-70
2022/04/05 09:52:27;;;;;;;2.97;2.03;;;8.30;99.90;;;;;;5115464;28;20471;-71
2022/04/05 09:54:56;;;;;;;4.97;1.23;;;8.30;99.90;;;;;;5115839;28;20560;-72
2022/04/05 09:57:30;;;;;;;8.50;1.30;;;8.20;99.90;;;;;;5115441;28;20460;-70
2022/04/05 10:00:09;;;;;;;5.53;1.77;;;8.20;99.90;;;;;;5115124;28;20994;-70
2022/04/05 10:02:37;;;;;;;6.07;1.30;;;8.20;99.90;;;;;;5116032;28;20425;-71
2022/04/05 10:05:06;;;;;;;4.17;1.20;;;8.20;99.90;;;;;;5116387;28;20468;-73
2022/04/05 10:07:33;;;;;;;4.73;1.83;;;8.30;99.90;;;;;;5115086;28;20517;-72
2022/04/05 10:10:04;;;;;;;7.17;1.93;;;8.40;99.90;;;;;;5115273;28;20829;-72
2022/04/05 10:12:31;;;;;;;5.93;1.70;;;8.60;99.90;;;;;;5115035;28;20891;-71
2022/04/05 10:14:59;;;;;;;6.30;2.00;;;8.70;99.90;;;;;;5114866;28;20459;-72
2022/04/05 10:17:27;;;;;;;8.27;1.77;;;8.80;99.90;;;;;;5115434;28;20452;-71
2022/04/05 10:19:56;;;;;;;5.10;2.57;;;8.90;99.90;;;;;;5114995;28;20555;-72
2022/04/05 10:22:23;;;;;;;2.53;1.70;;;8.90;99.90;;;;;;5115239;28;20460;-72
2022/04/05 10:24:52;;;;;;;6.23;1.87;;;8.90;99.90;;;;;;5115273;28;20511;-71
2022/04/05 10:27:25;;;;;;;6.50;1.60;;;8.70;99.90;;;;;;5117238;28;20502;-71
2022/04/05 10:30:01;;;;;;;3.10;2.00;;;8.70;99.90;;;;;;5116218;28;20522;-71
2022/04/05 10:32:34;;;;;;;7.67;1.80;;;8.70;99.90;;;;;;5115126;28;20444;-71
2022/04/05 10:35:05;;;;;;;6.47;1.30;;;8.60;99.90;;;;;;5114992;28;20437;-72
2022/04/05 10:37:33;;;;;;;4.33;1.77;;;8.60;99.90;;;;;;5116706;28;20441;-71
2022/04/05 10:40:16;;;;;;;5.87;2.43;;;8.60;99.90;;;;;;5114485;28;20918;-70
2022/04/05 10:42:47;;;;;;;5.07;1.50;;;8.60;99.90;;;;;;5114751;28;20513;-71
2022/04/05 10:45:16;;;;;;;4.47;1.67;;;8.70;99.90;;;;;;5114451;28;20526;-72
2022/04/05 10:48:09;;;;;;;6.37;2.10;;;8.60;99.90;;;;;;5114945;28;20521;-70
2022/04/05 10:50:36;;;;;;;6.40;1.73;;;8.60;99.90;;;;;;5114790;28;20501;-71
2022/04/05 10:53:18;;;;;;;3.20;1.50;;;8.80;99.90;;;;;;5114932;28;20539;-71
2022/04/05 10:56:14;;;;;;;5.93;1.67;;;9.00;99.90;;;;;;5116308;28;20480;-73
2022/04/05 10:58:58;;;;;;;5.00;1.23;;;9.20;99.90;;;;;;5119750;28;20471;-70
2022/04/05 11:01:27;;;;;;;4.70;1.70;;;9.40;99.90;;;;;;5118572;28;20592;-72
2022/04/05 11:04:35;;;;;;;3.97;1.60;;;9.50;99.90;;;;;;5116077;28;20475;-71
2022/04/05 11:07:14;;;;;;;5.93;1.20;;;9.60;99.90;;;;;;5096740;28;20797;-71
2022/04/05 11:09:59;;;;;;;4.10;1.10;;;9.70;99.90;;;;;;5121930;28;20474;-71
2022/04/05 11:12:28;;;;;;;2.80;1.17;;;9.70;99.90;;;;;;5118458;28;20451;-71
2022/04/05 11:14:58;;;;;;;6.60;1.67;;;9.60;99.90;;;;;;5119862;28;20493;-72
2022/04/05 11:17:26;;;;;;;3.23;1.60;;;9.50;99.90;;;;;;5120295;28;20453;-71
2022/04/05 11:19:55;;;;;;;8.60;1.57;;;9.40;99.90;;;;;;5122809;28;20520;-72
2022/04/05 11:22:34;;;;;;;3.77;1.13;;;9.50;99.90;;;;;;5119905;28;20458;-70
2022/04/05 11:25:04;;;;;;;1.83;1.13;;;9.50;99.90;;;;;;5118817;28;20809;-72
2022/04/05 11:27:34;;;;;;;5.27;1.43;;;9.50;99.90;;;;;;5119276;28;20441;-71
2022/04/05 11:30:40;;;;;;;2.40;1.20;;;9.50;99.90;;;;;;5120005;28;20546;-71
2022/04/05 11:33:36;;;;;;;7.20;1.50;;;9.40;99.90;;;;;;5119195;28;20913;-71
2022/04/05 11:36:06;;;;;;;4.87;1.63;;;9.30;99.90;;;;;;5120954;28;20879;-73
2022/04/05 11:38:34;;;;;;;4.57;2.10;;;9.20;99.90;;;;;;5120688;28;20456;-73
2022/04/05 11:41:04;;;;;;;3.73;1.27;;;9.10;99.90;;;;;;5118377;28;20463;-71
2022/04/05 11:43:32;;;;;;;5.87;1.60;;;9.10;99.90;;;;;;5118196;28;20934;-72
2022/04/05 11:46:04;;;;;;;2.33;1.10;;;9.10;99.90;;;;;;5117850;28;20509;-71
2022/04/05 11:48:31;;;;;;;6.50;1.80;;;9.20;99.90;;;;;;5118492;28;20746;-71
2022/04/05 11:51:00;;;;;;;4.93;1.47;;;9.30;99.90;;;;;;5118388;28;20471;-74
2022/04/05 11:53:29;;;;;;;3.17;1.30;;;9.30;99.90;;;;;;5117645;28;20498;-73
2022/04/05 11:56:14;;;;;;;5.00;1.43;;;9.30;99.90;;;;;;5119088;28;20476;-71
2022/04/05 11:58:46;;;;;;;4.23;1.10;;;9.40;99.90;;;;;;5118570;28;20463;-71
2022/04/05 12:01:16;;;;;;;2.90;1.23;;;9.50;99.90;;;;;;5118162;28;20525;-72
2022/04/05 12:03:44;;;;;;;2.50;1.10;;;9.70;99.90;;;;;;5117881;28;20490;-72
2022/04/05 12:06:12;;;;;;;3.10;1.13;;;9.70;99.90;;;;;;5118022;28;20456;-71
2022/04/05 12:08:38;;;;;;;3.33;1.00;;;9.70;99.90;;;;;;5117851;28;20460;-71
2022/04/05 12:11:07;;;;;;;3.33;1.50;;;9.70;99.90;;;;;;5117556;28;20453;-71
2022/04/05 12:13:35;;;;;;;2.90;1.30;;;9.60;99.90;;;;;;5117660;28;20468;-71
2022/04/05 12:16:02;;;;;;;2.57;1.27;;;9.50;99.90;;;;;;5117381;28;20521;-72
2022/04/05 12:18:31;;;;;;;2.40;1.20;;;9.50;99.90;;;;;;5117175;28;20460;-72
2022/04/05 12:21:00;;;;;;;5.83;2.43;;;9.50;99.90;;;;;;5117212;28;20529;-72
2022/04/05 12:23:33;;;;;;;3.60;1.17;;;9.30;99.90;;;;;;5117319;28;20460;-71
2022/04/05 12:26:07;;;;;;;2.63;1.50;;;9.30;99.90;;;;;;5117071;28;20867;-72
2022/04/05 12:28:34;;;;;;;6.10;1.33;;;9.30;99.90;;;;;;5116957;28;20500;-72
2022/04/05 12:31:09;;;;;;;4.07;1.53;;;9.40;99.90;;;;;;5117413;28;20902;-72
2022/04/05 12:33:39;;;;;;;5.00;1.70;;;9.40;99.90;;;;;;5117229;28;20452;-72
2022/04/05 12:36:10;;;;;;;3.80;1.50;;;9.40;99.90;;;;;;5117580;28;20448;-71
2022/04/05 12:38:37;;;;;;;4.33;1.30;;;9.50;99.90;;;;;;5117043;28;20926;-71
2022/04/05 12:41:05;;;;;;;8.53;1.20;;;9.50;99.90;;;;;;5122257;28;20967;-70
2022/04/05 12:43:32;;;;;;;2.50;1.20;;;9.60;99.90;;;;;;5120400;28;20460;-71
2022/04/05 12:46:10;;;;;;;4.13;1.30;;;9.80;99.90;;;;;;5119194;28;20474;-70
2022/04/05 12:48:39;;;;;;;5.63;2.00;;;10.00;99.90;;;;;;5119490;28;20478;-70
2022/04/05 12:51:06;;;;;;;5.63;2.37;;;9.90;99.90;;;;;;5119479;28;20488;-70
2022/04/05 12:53:37;;;;;;;5.20;1.70;;;9.80;99.90;;;;;;5118688;28;20496;-71
2022/04/05 12:56:09;;;;;;;4.50;1.77;;;9.60;99.90;;;;;;5117259;28;20545;-72
2022/04/05 12:58:45;;;;;;;3.33;1.50;;;9.50;99.90;;;;;;5117355;28;20499;-72
2022/04/05 13:01:17;;;;;;;4.97;1.67;;;9.50;99.90;;;;;;5116675;28;20444;-71
2022/04/05 13:03:46;;;;;;;7.13;1.97;;;9.40;99.90;;;;;;5116789;28;20467;-71